Drake, Colorado
Current Conditions -  °F | °C
As of 1:35 PM on Saturday 25 Oct 2014 (Local Time) from KFNL Reporting Station
Clear Clear  
Wind Chill: 77°   Ceiling: Unl
Heat Index: 77°   Visibility: 9mi
Dew Point: 28°   Wind: 9mph
Humidity: 17%   Direction: 170°S
Pressure: 30.14"   Gusts: NA
Location:  40.43°N, 105.34°W
Report Text: KFNL 251935Z AUTO 17008KT 9SM CLR 25/M02 A3014 RMK AO1
Loading
Personal Weather Stations






























Interactive Weather Map
Tropical Storm Tracking
New forecast layout! Learn more

10-Day Weather Forecast

Advertisements
Track Severe Weather on mobile